Grays Knob, Kentucky
Current Conditions -  °F | °C
As of 7:15 AM on Monday 26 Jan 2015 (Local Time) from KI35 Reporting Station
Overcast Overcast  
Wind Chill: 31°   Ceiling: 800
Heat Index: 36°   Visibility: 7mi
Dew Point: 36°   Wind: 6mph
Humidity: 100%   Direction: 270°W
Pressure: 29.69"   Gusts: NA
Location:  36.81°N, 83.31°W
Report Text: KI35 261215Z AUTO 27005KT 7SM BKN008 OVC011 02/02 A2969 RMK AO1
Loading
Personal Weather Stations






























Interactive Weather Map New forecast layout! Learn more

10-Day Weather Forecast

Advertisements
Track Severe Weather on mobile